Time;durP1;ratioP1;P1;durP2;ratioP2;P2;SDS_P1;SDS_P2;PMS_P1;PMS_P2;Temp;Humidity;BMP_temperature;BMP_pressure;BME280_temperature;BME280_humidity;BME280_pressure;Samples;Min_cycle;Max_cycle;Signal;HPM_P1;HPM_P2
2022/04/20 00:01:54;;;;;;;13.50;9.05;;;;;;;;;;4937691;29;20051;-66
2022/04/20 00:04:23;;;;;;;17.70;9.82;;;;;;;;;;4938105;29;20060;-66
2022/04/20 00:06:51;;;;;;;11.73;9.27;;;;;;;;;;4937154;29;20058;-66
2022/04/20 00:09:20;;;;;;;12.23;9.32;;;;;;;;;;4937283;29;20055;-65
2022/04/20 00:11:50;;;;;;;12.23;9.32;;;;;;;;;;4937292;29;20175;-66
2022/04/20 00:14:23;;;;;;;12.80;9.07;;;;;;;;;;4938008;29;20454;-65
2022/04/20 00:16:53;;;;;;;10.43;9.32;;;;;;;;;;4937595;29;20055;-65
2022/04/20 00:19:21;;;;;;;14.13;9.13;;;;;;;;;;4937967;29;20490;-66
2022/04/20 00:21:52;;;;;;;13.85;10.27;;;;;;;;;;4937288;29;20058;-66
2022/04/20 00:24:21;;;;;;;12.98;9.55;;;;;;;;;;4937319;29;20059;-66
2022/04/20 00:26:51;;;;;;;13.20;9.38;;;;;;;;;;4937714;29;20047;-66
2022/04/20 00:29:21;;;;;;;15.80;10.55;;;;;;;;;;4937003;29;20062;-65
2022/04/20 00:31:50;;;;;;;13.02;9.20;;;;;;;;;;4936989;29;20124;-65
2022/04/20 00:34:19;;;;;;;11.52;10.18;;;;;;;;;;4937199;29;20118;-66
2022/04/20 00:36:52;;;;;;;11.00;9.23;;;;;;;;;;4935859;29;20067;-66
2022/04/20 00:39:22;;;;;;;15.90;10.70;;;;;;;;;;4937435;29;20059;-65
2022/04/20 00:41:52;;;;;;;14.68;11.27;;;;;;;;;;4941432;29;20048;-66
2022/04/20 00:44:20;;;;;;;11.75;9.88;;;;;;;;;;4940849;29;20054;-66
2022/04/20 00:46:50;;;;;;;12.18;10.02;;;;;;;;;;4940939;29;20052;-66
2022/04/20 00:49:18;;;;;;;12.32;9.45;;;;;;;;;;4939622;29;20056;-66
2022/04/20 00:51:53;;;;;;;15.75;10.10;;;;;;;;;;4924376;29;20491;-66
2022/04/20 00:54:21;;;;;;;12.68;10.25;;;;;;;;;;4940118;29;20081;-66
2022/04/20 00:56:51;;;;;;;11.20;9.90;;;;;;;;;;4939761;29;20047;-67
2022/04/20 00:59:23;;;;;;;15.13;10.18;;;;;;;;;;4940807;29;20048;-66
2022/04/20 01:01:53;;;;;;;13.85;9.48;;;;;;;;;;4940492;29;20535;-66
2022/04/20 01:04:22;;;;;;;14.82;10.07;;;;;;;;;;4939639;29;20079;-66
2022/04/20 01:07:34;;;;;;;14.30;10.27;;;;;;;;;;4940716;29;20138;-66
2022/04/20 01:10:41;;;;;;;10.32;8.88;;;;;;;;;;4940452;29;20047;-66
2022/04/20 01:13:31;;;;;;;11.20;9.90;;;;;;;;;;4940135;29;20102;-67
2022/04/20 01:16:23;;;;;;;14.80;11.23;;;;;;;;;;4918984;29;20115;-66
2022/04/20 01:19:39;;;;;;;13.10;9.98;;;;;;;;;;4927844;29;20118;-66
2022/04/20 01:22:21;;;;;;;12.05;9.05;;;;;;;;;;4939243;29;20055;-66
2022/04/20 01:25:17;;;;;;;15.50;8.57;;;;;;;;;;4940678;29;20070;-66
2022/04/20 01:28:17;;;;;;;15.45;9.18;;;;;;;;;;4939325;29;20075;-66
2022/04/20 01:31:18;;;;;;;10.85;8.35;;;;;;;;;;4935727;29;20054;-65
2022/04/20 01:34:08;;;;;;;13.75;9.93;;;;;;;;;;4938974;29;20062;-66
2022/04/20 01:36:37;;;;;;;12.10;8.88;;;;;;;;;;4938972;29;20525;-66
2022/04/20 01:39:07;;;;;;;12.90;7.68;;;;;;;;;;4938543;29;20079;-66
2022/04/20 01:41:37;;;;;;;14.25;8.30;;;;;;;;;;4938832;29;20047;-66
2022/04/20 01:44:06;;;;;;;11.13;8.43;;;;;;;;;;4939385;29;20563;-66
2022/04/20 01:46:55;;;;;;;13.07;9.18;;;;;;;;;;4939221;29;20591;-66
2022/04/20 01:49:35;;;;;;;14.07;9.63;;;;;;;;;;4939740;29;20052;-66
2022/04/20 01:52:18;;;;;;;14.35;8.55;;;;;;;;;;4937815;29;20054;-65
2022/04/20 01:55:06;;;;;;;12.27;9.82;;;;;;;;;;4938791;29;20063;-66
2022/04/20 01:57:55;;;;;;;12.50;9.05;;;;;;;;;;4939901;29;20070;-66
2022/04/20 02:00:47;;;;;;;14.23;9.48;;;;;;;;;;4938685;29;20055;-65
2022/04/20 02:03:38;;;;;;;17.42;10.55;;;;;;;;;;4938350;29;20051;-66
2022/04/20 02:06:10;;;;;;;13.38;9.93;;;;;;;;;;4938226;29;20051;-66
2022/04/20 02:09:01;;;;;;;11.77;9.65;;;;;;;;;;4938802;29;20047;-66
2022/04/20 02:12:09;;;;;;;15.65;9.82;;;;;;;;;;4938593;29;20529;-66
2022/04/20 02:15:09;;;;;;;10.60;9.50;;;;;;;;;;4937187;29;20081;-66
2022/04/20 02:17:57;;;;;;;21.05;8.70;;;;;;;;;;4937493;29;20075;-65
2022/04/20 02:20:54;;;;;;;12.40;10.55;;;;;;;;;;4938109;29;20454;-65
2022/04/20 02:23:22;;;;;;;17.95;9.38;;;;;;;;;;4937773;29;20083;-65
2022/04/20 02:25:51;;;;;;;14.23;9.90;;;;;;;;;;4938335;29;20047;-65
2022/04/20 02:28:22;;;;;;;15.18;9.85;;;;;;;;;;4937854;29;20507;-65
2022/04/20 02:30:52;;;;;;;11.63;10.23;;;;;;;;;;4939432;29;20479;-65
2022/04/20 02:33:22;;;;;;;17.73;10.95;;;;;;;;;;4937814;29;20071;-65
2022/04/20 02:35:53;;;;;;;14.20;10.38;;;;;;;;;;4937749;29;20054;-65
2022/04/20 02:38:21;;;;;;;15.75;11.18;;;;;;;;;;4939332;29;20048;-65
2022/04/20 02:40:52;;;;;;;12.80;10.57;;;;;;;;;;4937754;29;20536;-65
2022/04/20 02:43:20;;;;;;;12.52;10.60;;;;;;;;;;4939071;29;20044;-65
2022/04/20 02:45:48;;;;;;;28.42;11.02;;;;;;;;;;4937498;29;20049;-66
2022/04/20 02:48:17;;;;;;;14.18;9.52;;;;;;;;;;4938985;29;20106;-67
2022/04/20 02:50:47;;;;;;;16.55;11.43;;;;;;;;;;4938273;29;20048;-67
2022/04/20 02:53:16;;;;;;;17.10;10.65;;;;;;;;;;4937657;29;20054;-66
2022/04/20 02:55:45;;;;;;;18.17;10.30;;;;;;;;;;4937427;29;20048;-67
2022/04/20 02:58:18;;;;;;;15.20;11.23;;;;;;;;;;4937769;29;20076;-67
2022/04/20 03:00:54;;;;;;;18.33;10.88;;;;;;;;;;4937048;29;20048;-65
2022/04/20 03:03:30;;;;;;;18.13;11.55;;;;;;;;;;4937782;29;20051;-66
2022/04/20 03:06:07;;;;;;;19.48;11.10;;;;;;;;;;4937536;29;20059;-65
2022/04/20 03:08:36;;;;;;;17.90;12.02;;;;;;;;;;4937206;29;20051;-67
2022/04/20 03:11:06;;;;;;;13.82;10.75;;;;;;;;;;4937265;29;20048;-67
2022/04/20 03:13:36;;;;;;;21.10;10.88;;;;;;;;;;4937133;29;20044;-66
2022/04/20 03:16:05;;;;;;;15.50;10.82;;;;;;;;;;4938323;29;20489;-67
2022/04/20 03:18:33;;;;;;;14.95;11.68;;;;;;;;;;4936686;29;20052;-66
2022/04/20 03:21:11;;;;;;;16.42;11.13;;;;;;;;;;4937473;29;20090;-67
2022/04/20 03:23:41;;;;;;;17.92;11.98;;;;;;;;;;4938274;29;20043;-66
2022/04/20 03:26:15;;;;;;;15.43;11.85;;;;;;;;;;4936614;29;20135;-66
2022/04/20 03:29:08;;;;;;;21.38;11.15;;;;;;;;;;4932287;29;20494;-65
2022/04/20 03:31:38;;;;;;;20.17;12.65;;;;;;;;;;4937071;29;20138;-65
2022/04/20 03:34:06;;;;;;;14.73;10.93;;;;;;;;;;4938207;29;20115;-65
2022/04/20 03:36:35;;;;;;;18.10;11.80;;;;;;;;;;4936652;29;20455;-65
2022/04/20 03:39:04;;;;;;;17.88;12.23;;;;;;;;;;4938179;29;20047;-65
2022/04/20 03:41:34;;;;;;;12.70;11.40;;;;;;;;;;4936581;29;20052;-65
2022/04/20 03:44:05;;;;;;;17.33;12.27;;;;;;;;;;4938024;29;20092;-66
2022/04/20 03:46:36;;;;;;;24.55;12.00;;;;;;;;;;4937778;29;20051;-65
2022/04/20 03:49:04;;;;;;;16.17;12.50;;;;;;;;;;4936547;29;20087;-66
2022/04/20 03:51:33;;;;;;;20.23;13.23;;;;;;;;;;4937474;29;20106;-66
2022/04/20 03:54:02;;;;;;;14.93;11.77;;;;;;;;;;4936808;29;20168;-66
2022/04/20 03:59:24;;;;;;;19.75;12.40;;;;;;;;;;4936775;29;20047;-66
2022/04/20 04:01:53;;;;;;;19.90;11.95;;;;;;;;;;4936248;29;20500;-66
2022/04/20 04:04:22;;;;;;;18.40;13.10;;;;;;;;;;4936903;29;20062;-66
2022/04/20 04:06:53;;;;;;;14.30;12.60;;;;;;;;;;4936090;29;20143;-66
2022/04/20 04:09:22;;;;;;;18.73;12.25;;;;;;;;;;4936555;29;20079;-66
2022/04/20 04:11:52;;;;;;;18.38;12.43;;;;;;;;;;4936154;29;20051;-66
2022/04/20 04:14:22;;;;;;;18.73;13.20;;;;;;;;;;4936248;29;20055;-66
2022/04/20 04:16:52;;;;;;;22.00;12.13;;;;;;;;;;4940314;29;20048;-66
2022/04/20 04:19:21;;;;;;;20.02;12.18;;;;;;;;;;4940076;29;20079;-66
2022/04/20 04:21:54;;;;;;;26.77;14.65;;;;;;;;;;4940267;29;20059;-66
2022/04/20 04:24:37;;;;;;;21.17;14.15;;;;;;;;;;4940078;29;20048;-66
2022/04/20 04:27:17;;;;;;;22.58;14.13;;;;;;;;;;4941729;29;20474;-66
2022/04/20 04:29:46;;;;;;;23.85;13.05;;;;;;;;;;4940999;29;20079;-66
2022/04/20 04:32:17;;;;;;;22.30;15.20;;;;;;;;;;4940398;29;20511;-66
2022/04/20 04:34:46;;;;;;;19.77;14.20;;;;;;;;;;4939844;29;20575;-66
2022/04/20 04:37:16;;;;;;;22.92;13.75;;;;;;;;;;4940391;29;20051;-66
2022/04/20 04:39:52;;;;;;;21.95;13.95;;;;;;;;;;4939333;29;20107;-67
2022/04/20 04:42:22;;;;;;;17.38;13.98;;;;;;;;;;4927133;29;20052;-67
2022/04/20 04:44:51;;;;;;;26.02;13.10;;;;;;;;;;4929193;29;20146;-66
2022/04/20 04:50:08;;;;;;;18.80;13.48;;;;;;;;;;4930929;29;20055;-67
2022/04/20 04:52:37;;;;;;;31.98;15.07;;;;;;;;;;4928162;29;20059;-67
2022/04/20 04:55:09;;;;;;;19.90;14.50;;;;;;;;;;4931852;29;20056;-66
2022/04/20 04:57:40;;;;;;;19.60;13.95;;;;;;;;;;4938813;29;20491;-65
2022/04/20 05:00:10;;;;;;;19.00;13.38;;;;;;;;;;4930760;29;20058;-65
2022/04/20 05:02:59;;;;;;;19.33;12.43;;;;;;;;;;4927871;29;20461;-65
2022/04/20 05:05:31;;;;;;;14.85;12.50;;;;;;;;;;4928697;29;20083;-66
2022/04/20 05:08:00;;;;;;;19.10;12.02;;;;;;;;;;4933056;29;20408;-65
2022/04/20 05:10:31;;;;;;;24.80;11.95;;;;;;;;;;4928958;29;20476;-66
2022/04/20 05:13:05;;;;;;;20.00;12.18;;;;;;;;;;4938625;29;20525;-65
2022/04/20 05:15:35;;;;;;;14.75;11.70;;;;;;;;;;4933573;29;20055;-63
2022/04/20 05:18:05;;;;;;;17.92;12.40;;;;;;;;;;4934041;29;20047;-67
2022/04/20 05:20:35;;;;;;;16.25;12.23;;;;;;;;;;4939251;29;20074;-68
2022/04/20 05:23:06;;;;;;;16.80;11.95;;;;;;;;;;4938289;29;20083;-68
2022/04/20 05:25:36;;;;;;;16.63;11.23;;;;;;;;;;4938737;29;20047;-67
2022/04/20 05:28:08;;;;;;;13.05;10.55;;;;;;;;;;4938158;29;20549;-67
2022/04/20 05:30:38;;;;;;;13.63;10.10;;;;;;;;;;4938929;29;20048;-67
2022/04/20 05:33:06;;;;;;;15.70;10.13;;;;;;;;;;4938961;29;20542;-67
2022/04/20 05:35:36;;;;;;;24.23;10.27;;;;;;;;;;4938543;29;20142;-67
2022/04/20 05:44:05;;;;;;;16.00;10.73;;;;;;;;;;4899213;29;20129;-65
2022/04/20 05:46:33;;;;;;;21.45;12.52;;;;;;;;;;4916266;29;20084;-65
2022/04/20 05:49:09;;;;;;;17.83;10.82;;;;;;;;;;4945415;29;20047;-67
2022/04/20 05:51:40;;;;;;;12.32;11.00;;;;;;;;;;4943230;29;20147;-69
2022/04/20 05:54:10;;;;;;;15.70;10.32;;;;;;;;;;4928597;29;20059;-69
2022/04/20 05:56:38;;;;;;;12.82;9.20;;;;;;;;;;4922657;29;20044;-67
2022/04/20 05:59:06;;;;;;;13.88;10.75;;;;;;;;;;4921903;29;20044;-68
2022/04/20 06:01:40;;;;;;;17.77;10.73;;;;;;;;;;4922709;29;20115;-69
2022/04/20 06:04:16;;;;;;;12.93;8.07;;;;;;;;;;4926274;29;20040;-69
2022/04/20 06:07:08;;;;;;;15.10;8.77;;;;;;;;;;4925101;29;20106;-68
2022/04/20 06:09:42;;;;;;;14.55;7.78;;;;;;;;;;4934269;29;20479;-68
2022/04/20 06:12:41;;;;;;;13.80;8.77;;;;;;;;;;4924616;29;20060;-67
2022/04/20 06:15:26;;;;;;;12.90;9.80;;;;;;;;;;4927847;29;20055;-69
2022/04/20 06:18:05;;;;;;;23.27;11.85;;;;;;;;;;4925607;29;20412;-69
2022/04/20 06:20:35;;;;;;;15.40;10.25;;;;;;;;;;4930056;29;20079;-67
2022/04/20 06:23:24;;;;;;;17.92;11.77;;;;;;;;;;4929701;29;20058;-68
2022/04/20 06:26:11;;;;;;;22.70;13.18;;;;;;;;;;4930922;29;20419;-67
2022/04/20 06:29:18;;;;;;;17.48;11.45;;;;;;;;;;4924866;29;20522;-66
2022/04/20 06:32:01;;;;;;;19.58;14.10;;;;;;;;;;4928538;29;20051;-66
2022/04/20 06:34:37;;;;;;;20.10;12.82;;;;;;;;;;4924791;29;20052;-67
2022/04/20 06:37:17;;;;;;;24.30;13.30;;;;;;;;;;4932292;29;20055;-67
2022/04/20 06:40:10;;;;;;;25.42;12.90;;;;;;;;;;4929534;29;20075;-67
2022/04/20 06:42:39;;;;;;;42.58;15.57;;;;;;;;;;4928844;29;20047;-67
2022/04/20 06:45:36;;;;;;;19.00;13.98;;;;;;;;;;4924375;29;20103;-67
2022/04/20 06:48:18;;;;;;;26.55;13.73;;;;;;;;;;4929090;29;20150;-67
2022/04/20 06:51:08;;;;;;;16.75;13.90;;;;;;;;;;4924973;29;20123;-68
2022/04/20 06:59:54;;;;;;;14.02;10.90;;;;;;;;;;4897117;29;20540;-68
2022/04/20 07:02:59;;;;;;;20.13;11.85;;;;;;;;;;4923430;29;20055;-68
2022/04/20 07:05:45;;;;;;;15.68;12.45;;;;;;;;;;4933571;29;20131;-67
2022/04/20 07:08:36;;;;;;;19.40;12.35;;;;;;;;;;4924384;29;20088;-67
2022/04/20 07:11:09;;;;;;;17.50;12.15;;;;;;;;;;4933791;29;20052;-68
2022/04/20 07:13:39;;;;;;;18.60;13.10;;;;;;;;;;4924264;29;20051;-69
2022/04/20 07:16:07;;;;;;;21.73;11.60;;;;;;;;;;4929380;29;20051;-68
2022/04/20 07:18:41;;;;;;;19.85;10.75;;;;;;;;;;4935359;29;20118;-66
2022/04/20 07:21:48;;;;;;;14.25;10.70;;;;;;;;;;4894804;29;20071;-64
2022/04/20 07:24:26;;;;;;;16.33;10.52;;;;;;;;;;4926358;29;20043;-68
2022/04/20 07:26:58;;;;;;;21.95;12.38;;;;;;;;;;4921187;29;20052;-68
2022/04/20 07:29:43;;;;;;;15.45;9.63;;;;;;;;;;4927985;29;20044;-68
2022/04/20 07:32:31;;;;;;;18.08;9.15;;;;;;;;;;4934770;29;20610;-68
2022/04/20 07:35:29;;;;;;;16.42;10.30;;;;;;;;;;4943806;29;20137;-68
2022/04/20 07:38:27;;;;;;;20.58;9.68;;;;;;;;;;4927143;29;20194;-68
2022/04/20 07:41:26;;;;;;;13.20;8.68;;;;;;;;;;4910738;29;20608;-69
2022/04/20 07:44:23;;;;;;;11.05;8.75;;;;;;;;;;4909071;29;20224;-70
2022/04/20 07:47:00;;;;;;;13.55;7.93;;;;;;;;;;4922505;29;20048;-69
2022/04/20 07:52:58;;;;;;;16.45;9.18;;;;;;;;;;4930776;29;20499;-69
2022/04/20 07:55:56;;;;;;;16.60;8.57;;;;;;;;;;4906071;29;20071;-68
2022/04/20 07:58:48;;;;;;;15.85;9.25;;;;;;;;;;4928516;29;20070;-68
2022/04/20 08:01:38;;;;;;;14.50;9.07;;;;;;;;;;4924267;29;20058;-69
2022/04/20 08:04:26;;;;;;;23.33;9.15;;;;;;;;;;4933721;29;20063;-67
2022/04/20 08:07:02;;;;;;;13.75;9.35;;;;;;;;;;4929323;29;20419;-69
2022/04/20 08:09:38;;;;;;;20.02;9.73;;;;;;;;;;4924233;29;20055;-63
2022/04/20 08:12:07;;;;;;;15.95;9.93;;;;;;;;;;4932586;29;20043;-67
2022/04/20 08:14:36;;;;;;;17.35;9.15;;;;;;;;;;4933000;29;20056;-66
2022/04/20 08:17:35;;;;;;;14.55;8.55;;;;;;;;;;4928005;29;20059;-67
2022/04/20 08:20:33;;;;;;;18.25;9.10;;;;;;;;;;4932486;29;20063;-67
2022/04/20 08:23:02;;;;;;;21.42;8.93;;;;;;;;;;4935493;29;20086;-67
2022/04/20 08:25:31;;;;;;;21.88;9.15;;;;;;;;;;4937348;29;20050;-65
2022/04/20 08:27:59;;;;;;;22.50;9.32;;;;;;;;;;4935908;29;20118;-64
2022/04/20 08:30:30;;;;;;;10.85;7.72;;;;;;;;;;4937585;29;20403;-65
2022/04/20 08:32:59;;;;;;;14.75;8.52;;;;;;;;;;4937368;29;20131;-65
2022/04/20 08:35:29;;;;;;;13.10;7.53;;;;;;;;;;4937164;29;20058;-65
2022/04/20 08:37:58;;;;;;;16.45;7.40;;;;;;;;;;4935563;29;20142;-65
2022/04/20 08:40:27;;;;;;;10.35;7.10;;;;;;;;;;4926622;29;20087;-65
2022/04/20 08:43:01;;;;;;;14.02;6.85;;;;;;;;;;4934108;29;20493;-65
2022/04/20 08:45:30;;;;;;;;;;;;;;;;;;4937272;29;20492;-65
2022/04/20 08:47:58;;;;;;;11.52;8.23;;;;;;;;;;4936037;29;20295;-65
2022/04/20 08:50:28;;;;;;;12.10;7.53;;;;;;;;;;4935584;29;20058;-65
2022/04/20 08:52:58;;;;;;;17.98;8.32;;;;;;;;;;4934475;29;20146;-65
2022/04/20 08:55:28;;;;;;;20.55;7.50;;;;;;;;;;4935563;29;20051;-66
2022/04/20 08:57:57;;;;;;;12.23;7.97;;;;;;;;;;4937551;29;20146;-67
2022/04/20 09:00:27;;;;;;;11.38;6.22;;;;;;;;;;4937314;29;20052;-64
2022/04/20 09:03:03;;;;;;;18.55;7.00;;;;;;;;;;4940318;29;20111;-67
2022/04/20 09:05:34;;;;;;;13.77;7.40;;;;;;;;;;4940567;29;20160;-67
2022/04/20 09:08:10;;;;;;;12.18;6.63;;;;;;;;;;4940236;29;20052;-67
2022/04/20 09:10:40;;;;;;;15.07;6.18;;;;;;;;;;4940958;29;20047;-67
2022/04/20 09:13:11;;;;;;;13.40;6.40;;;;;;;;;;4939981;29;20058;-67
2022/04/20 09:15:41;;;;;;;14.18;8.73;;;;;;;;;;4940846;29;20423;-66
2022/04/20 09:18:12;;;;;;;15.20;8.38;;;;;;;;;;4939548;29;20063;-66
2022/04/20 09:20:41;;;;;;;14.50;8.40;;;;;;;;;;4939658;29;20517;-67
2022/04/20 09:23:13;;;;;;;17.23;7.60;;;;;;;;;;4939917;29;20055;-70
2022/04/20 09:25:52;;;;;;;13.07;5.93;;;;;;;;;;4939979;29;20499;-66
2022/04/20 09:28:22;;;;;;;9.95;6.28;;;;;;;;;;4930820;29;20066;-66
2022/04/20 09:30:54;;;;;;;13.38;6.45;;;;;;;;;;4927726;29;20134;-66
2022/04/20 09:33:41;;;;;;;12.25;6.55;;;;;;;;;;4930105;29;20051;-67
2022/04/20 09:36:13;;;;;;;9.45;5.75;;;;;;;;;;4929583;29;20047;-67
2022/04/20 09:39:03;;;;;;;12.75;6.57;;;;;;;;;;4930549;29;20048;-67
2022/04/20 09:41:33;;;;;;;12.07;6.28;;;;;;;;;;4927800;29;20067;-67
2022/04/20 09:44:09;;;;;;;9.95;6.05;;;;;;;;;;4925867;29;20052;-67
2022/04/20 09:49:58;;;;;;;9.27;5.40;;;;;;;;;;4927436;29;20404;-67
2022/04/20 09:52:36;;;;;;;14.20;5.93;;;;;;;;;;4930355;29;20056;-66
2022/04/20 09:55:08;;;;;;;13.95;5.88;;;;;;;;;;4933007;29;20412;-67
2022/04/20 09:57:38;;;;;;;5.75;5.20;;;;;;;;;;4929279;29;20530;-66
2022/04/20 10:00:12;;;;;;;19.73;6.47;;;;;;;;;;4930418;29;20411;-66
2022/04/20 10:02:52;;;;;;;15.77;5.93;;;;;;;;;;4933260;29;20047;-66
2022/04/20 10:05:23;;;;;;;10.93;6.05;;;;;;;;;;4927585;29;20080;-66
2022/04/20 10:07:54;;;;;;;13.02;6.20;;;;;;;;;;4931777;29;20061;-67
2022/04/20 10:10:23;;;;;;;10.32;6.43;;;;;;;;;;4926779;29;20147;-67
2022/04/20 10:12:54;;;;;;;14.25;5.13;;;;;;;;;;4934706;29;20079;-66
2022/04/20 10:18:17;;;;;;;10.05;5.10;;;;;;;;;;4927884;29;20052;-67
2022/04/20 10:20:51;;;;;;;7.63;4.85;;;;;;;;;;4925871;29;20431;-66
2022/04/20 10:23:22;;;;;;;9.02;5.13;;;;;;;;;;4938386;29;20132;-66
2022/04/20 10:25:54;;;;;;;10.70;5.93;;;;;;;;;;4939039;29;20052;-66
2022/04/20 10:28:22;;;;;;;16.38;5.60;;;;;;;;;;4939002;29;20135;-66
2022/04/20 10:30:59;;;;;;;9.18;5.25;;;;;;;;;;4939118;29;20047;-66
2022/04/20 10:33:31;;;;;;;8.07;4.63;;;;;;;;;;4922646;29;20496;-66
2022/04/20 10:36:18;;;;;;;18.20;4.65;;;;;;;;;;4924258;29;20048;-66
2022/04/20 10:39:18;;;;;;;15.20;6.03;;;;;;;;;;4938146;29;20059;-66
2022/04/20 10:42:11;;;;;;;6.28;4.72;;;;;;;;;;4937214;29;20055;-66
2022/04/20 10:44:55;;;;;;;8.82;4.35;;;;;;;;;;4939057;29;20058;-66
2022/04/20 10:47:29;;;;;;;9.88;4.45;;;;;;;;;;4938557;29;20054;-65
2022/04/20 10:50:17;;;;;;;6.80;4.38;;;;;;;;;;4938985;29;20055;-66
2022/04/20 10:52:52;;;;;;;7.53;5.65;;;;;;;;;;4938592;29;20043;-66
2022/04/20 10:55:31;;;;;;;10.63;5.43;;;;;;;;;;4932313;29;20444;-66
2022/04/20 10:58:06;;;;;;;12.75;5.85;;;;;;;;;;4938732;29;20110;-66
2022/04/20 11:00:41;;;;;;;10.90;5.82;;;;;;;;;;4938565;29;20130;-66
2022/04/20 11:03:12;;;;;;;7.00;4.55;;;;;;;;;;4938555;29;20554;-66
2022/04/20 11:05:49;;;;;;;7.45;5.10;;;;;;;;;;4939150;29;20104;-65
2022/04/20 11:08:18;;;;;;;8.45;4.75;;;;;;;;;;4937972;29;20495;-66
2022/04/20 11:20:00;;;;;;;11.77;5.85;;;;;;;;;;4936925;29;20146;-66
2022/04/20 11:22:29;;;;;;;10.77;5.60;;;;;;;;;;4936985;29;20051;-66
2022/04/20 11:25:06;;;;;;;6.78;4.57;;;;;;;;;;4936859;29;20110;-66
2022/04/20 11:27:38;;;;;;;5.43;3.70;;;;;;;;;;4938369;29;20052;-66
2022/04/20 11:30:08;;;;;;;9.07;3.97;;;;;;;;;;4937507;29;20044;-66
2022/04/20 11:32:37;;;;;;;10.35;4.32;;;;;;;;;;4937930;29;20057;-65
2022/04/20 11:35:15;;;;;;;11.68;4.85;;;;;;;;;;4936797;29;20051;-65
2022/04/20 11:37:56;;;;;;;7.30;4.60;;;;;;;;;;4937479;29;20051;-65
2022/04/20 11:40:27;;;;;;;7.97;4.15;;;;;;;;;;4937769;29;20051;-66
2022/04/20 11:43:07;;;;;;;9.95;4.38;;;;;;;;;;4937590;29;20504;-65
2022/04/20 11:45:55;;;;;;;10.63;4.93;;;;;;;;;;4937672;29;20046;-65
2022/04/20 11:48:24;;;;;;;5.70;4.47;;;;;;;;;;4937727;29;20040;-65
2022/04/20 11:51:07;;;;;;;22.40;7.88;;;;;;;;;;4938095;29;20067;-65
2022/04/20 11:53:43;;;;;;;8.20;3.90;;;;;;;;;;4918501;29;20048;-65
2022/04/20 11:56:41;;;;;;;11.17;3.80;;;;;;;;;;4916955;29;20088;-65
2022/04/20 11:59:10;;;;;;;5.53;3.88;;;;;;;;;;4918498;29;20793;-65
2022/04/20 12:01:40;;;;;;;6.35;4.13;;;;;;;;;;4928030;29;20059;-65
2022/04/20 12:04:13;;;;;;;11.95;4.32;;;;;;;;;;4918448;29;20131;-65
2022/04/20 12:06:49;;;;;;;7.38;4.50;;;;;;;;;;4918617;29;20135;-65
2022/04/20 12:09:28;;;;;;;5.80;4.75;;;;;;;;;;4917557;29;20092;-66
2022/04/20 12:12:02;;;;;;;9.73;4.30;;;;;;;;;;4918128;29;20078;-65
2022/04/20 12:14:35;;;;;;;14.48;5.60;;;;;;;;;;4918461;29;20138;-66
2022/04/20 12:17:06;;;;;;;5.57;4.93;;;;;;;;;;4918688;29;20047;-65
2022/04/20 12:19:36;;;;;;;12.82;4.63;;;;;;;;;;4917199;29;20052;-65
2022/04/20 12:22:25;;;;;;;16.73;5.40;;;;;;;;;;4933140;29;20047;-65
2022/04/20 12:25:04;;;;;;;6.70;3.97;;;;;;;;;;4936554;29;20087;-66
2022/04/20 12:27:50;;;;;;;7.75;3.92;;;;;;;;;;4936925;29;20059;-65
2022/04/20 12:30:51;;;;;;;8.35;4.38;;;;;;;;;;4936793;29;20504;-65
2022/04/20 12:33:24;;;;;;;10.32;4.20;;;;;;;;;;4934487;29;20416;-65
2022/04/20 12:36:00;;;;;;;10.18;3.90;;;;;;;;;;4920277;29;20755;-65
2022/04/20 12:38:44;;;;;;;17.52;5.50;;;;;;;;;;4939555;29;20059;-65
2022/04/20 12:41:48;;;;;;;17.20;4.43;;;;;;;;;;4940923;29;20063;-65
2022/04/20 12:44:36;;;;;;;;;;;;;;;;;;4940405;29;20319;-65
2022/04/20 12:47:14;;;;;;;6.38;4.07;;;;;;;;;;4940489;29;19923;-65
2022/04/20 12:50:03;;;;;;;8.48;4.35;;;;;;;;;;4940710;29;20222;-65
2022/04/20 12:52:32;;;;;;;8.10;4.47;;;;;;;;;;4939217;29;20447;-65
2022/04/20 12:55:15;;;;;;;11.40;4.10;;;;;;;;;;4940678;29;20507;-65
2022/04/20 13:02:01;;;;;;;7.13;3.78;;;;;;;;;;4940449;29;20381;-65
2022/04/20 13:03:38;;;;;;;8.13;4.07;;;;;;;;;;4939633;29;20106;-65
2022/04/20 13:06:10;;;;;;;6.90;3.72;;;;;;;;;;4940362;29;20079;-65
2022/04/20 13:08:45;;;;;;;9.90;4.00;;;;;;;;;;4941376;29;20079;-65
2022/04/20 13:11:16;;;;;;;12.00;4.07;;;;;;;;;;4939427;29;20075;-65
2022/04/20 13:14:07;;;;;;;5.90;3.90;;;;;;;;;;4939359;29;20040;-65
2022/04/20 13:16:37;;;;;;;6.72;4.60;;;;;;;;;;4940290;29;20074;-65
2022/04/20 13:19:06;;;;;;;6.43;4.00;;;;;;;;;;4940341;29;20071;-65
2022/04/20 13:21:35;;;;;;;4.78;4.00;;;;;;;;;;4939894;29;20547;-65
2022/04/20 13:24:06;;;;;;;6.57;3.95;;;;;;;;;;4940113;29;20047;-65
2022/04/20 13:29:23;;;;;;;8.18;3.75;;;;;;;;;;4926863;29;20452;-65
2022/04/20 13:31:52;;;;;;;7.70;4.55;;;;;;;;;;4939867;29;20048;-65
2022/04/20 13:34:23;;;;;;;9.10;3.92;;;;;;;;;;4939634;29;20561;-65
2022/04/20 13:36:51;;;;;;;6.97;4.38;;;;;;;;;;4939639;29;20150;-65
2022/04/20 13:39:22;;;;;;;9.07;4.00;;;;;;;;;;4940065;29;20059;-65
2022/04/20 13:41:51;;;;;;;8.43;4.18;;;;;;;;;;4939567;29;20046;-65
2022/04/20 13:44:20;;;;;;;5.35;4.03;;;;;;;;;;4940035;29;20055;-65
2022/04/20 13:46:49;;;;;;;9.98;4.57;;;;;;;;;;4939823;29;20048;-65
2022/04/20 13:49:19;;;;;;;5.88;3.88;;;;;;;;;;4938494;29;20142;-65
2022/04/20 13:51:48;;;;;;;8.32;3.90;;;;;;;;;;4939138;29;20047;-65
2022/04/20 13:54:17;;;;;;;5.40;3.95;;;;;;;;;;4939019;29;20055;-65
2022/04/20 13:56:50;;;;;;;5.10;3.65;;;;;;;;;;4939422;29;20051;-66
2022/04/20 13:59:20;;;;;;;7.70;3.60;;;;;;;;;;4923437;29;20064;-65
2022/04/20 14:01:48;;;;;;;6.18;3.42;;;;;;;;;;4939010;29;20052;-66
2022/04/20 14:04:19;;;;;;;6.00;3.08;;;;;;;;;;4939122;29;20044;-66
2022/04/20 14:06:50;;;;;;;6.82;3.17;;;;;;;;;;4939502;29;20114;-65
2022/04/20 14:09:19;;;;;;;10.32;4.43;;;;;;;;;;4939532;29;20122;-65
2022/04/20 14:11:48;;;;;;;9.30;3.90;;;;;;;;;;4939390;29;20056;-66
2022/04/20 14:14:18;;;;;;;6.97;4.38;;;;;;;;;;4937970;29;20056;-65
2022/04/20 14:16:48;;;;;;;14.27;4.93;;;;;;;;;;4938458;29;20051;-65
2022/04/20 14:19:17;;;;;;;5.85;4.63;;;;;;;;;;4939069;29;20128;-66
2022/04/20 14:21:47;;;;;;;5.50;4.00;;;;;;;;;;4938405;29;20039;-65
2022/04/20 14:24:17;;;;;;;4.70;4.00;;;;;;;;;;4939185;29;20111;-65
2022/04/20 14:32:21;;;;;;;7.60;3.97;;;;;;;;;;4919699;29;20184;-66
2022/04/20 14:34:53;;;;;;;5.15;4.57;;;;;;;;;;4919907;29;20044;-65
2022/04/20 14:37:23;;;;;;;6.97;5.43;;;;;;;;;;4920365;29;20044;-65
2022/04/20 14:39:52;;;;;;;10.75;4.10;;;;;;;;;;4938626;29;20070;-65
2022/04/20 14:42:21;;;;;;;5.75;4.00;;;;;;;;;;4938433;29;20056;-66
2022/04/20 14:44:50;;;;;;;7.70;5.60;;;;;;;;;;4939122;29;20044;-66
2022/04/20 14:47:20;;;;;;;7.18;4.45;;;;;;;;;;4939095;29;20499;-65
2022/04/20 14:49:49;;;;;;;10.60;4.53;;;;;;;;;;4938395;29;20075;-66
2022/04/20 14:52:18;;;;;;;7.00;3.97;;;;;;;;;;4937729;29;20055;-66
2022/04/20 14:54:47;;;;;;;8.95;4.60;;;;;;;;;;4938385;29;20047;-66
2022/04/20 14:57:35;;;;;;;7.72;4.25;;;;;;;;;;4938272;29;20066;-65
2022/04/20 15:00:10;;;;;;;11.77;4.07;;;;;;;;;;4937845;29;20039;-65
2022/04/20 15:02:42;;;;;;;8.02;3.90;;;;;;;;;;4938273;29;20051;-65
2022/04/20 15:05:11;;;;;;;6.80;3.78;;;;;;;;;;4937675;29;20048;-66
2022/04/20 15:07:42;;;;;;;5.70;3.78;;;;;;;;;;4921799;29;20048;-66
2022/04/20 15:10:12;;;;;;;6.90;4.10;;;;;;;;;;4930908;29;20083;-66
2022/04/20 15:12:41;;;;;;;8.35;3.63;;;;;;;;;;4938175;29;20059;-66
2022/04/20 15:15:11;;;;;;;4.78;4.13;;;;;;;;;;4934969;29;20047;-66
2022/04/20 15:17:40;;;;;;;10.10;4.00;;;;;;;;;;4937673;29;20443;-66
2022/04/20 15:20:11;;;;;;;6.85;3.85;;;;;;;;;;4937646;29;20455;-66
2022/04/20 15:22:42;;;;;;;10.95;4.20;;;;;;;;;;4937127;29;20059;-66
2022/04/20 15:25:11;;;;;;;5.00;3.70;;;;;;;;;;4937294;29;20046;-66
2022/04/20 15:27:40;;;;;;;10.98;3.92;;;;;;;;;;4936727;29;20043;-66
2022/04/20 15:30:10;;;;;;;8.50;5.30;;;;;;;;;;4937198;29;20047;-66
2022/04/20 15:32:40;;;;;;;7.20;3.35;;;;;;;;;;4934623;29;20517;-65
2022/04/20 15:35:09;;;;;;;7.38;4.30;;;;;;;;;;4922827;29;20044;-65
2022/04/20 15:37:39;;;;;;;7.68;4.05;;;;;;;;;;4918183;29;20043;-65
2022/04/20 15:40:20;;;;;;;8.20;3.75;;;;;;;;;;4933003;29;20074;-65
2022/04/20 15:42:50;;;;;;;8.80;3.45;;;;;;;;;;4935843;29;20063;-67
2022/04/20 15:45:19;;;;;;;14.68;3.95;;;;;;;;;;4936034;29;20047;-66
2022/04/20 15:47:49;;;;;;;8.52;3.85;;;;;;;;;;4937372;29;20110;-65
2022/04/20 15:50:19;;;;;;;7.65;3.70;;;;;;;;;;4936129;29;20056;-64
2022/04/20 15:52:49;;;;;;;6.60;3.80;;;;;;;;;;4937730;29;20040;-66
2022/04/20 16:00:53;;;;;;;11.88;3.67;;;;;;;;;;4937462;29;20571;-65
2022/04/20 16:03:23;;;;;;;5.78;3.40;;;;;;;;;;4937542;29;20043;-65
2022/04/20 16:05:52;;;;;;;9.95;4.05;;;;;;;;;;4937681;29;20143;-65
2022/04/20 16:08:22;;;;;;;10.82;4.18;;;;;;;;;;4937488;29;20109;-65
2022/04/20 16:10:52;;;;;;;7.60;3.70;;;;;;;;;;4936796;29;20054;-65
2022/04/20 16:13:22;;;;;;;7.00;4.18;;;;;;;;;;4937762;29;20090;-65